sensor_id;sensor_type;location;lat;lon;timestamp;pressure;altitude;pressure_sealevel;temperature;humidity
58239;BME280;44037;55.638;37.356;2023-10-19T00:01:54;98124.47;;;5.62;100.00
58239;BME280;44037;55.638;37.356;2023-10-19T00:04:22;98114.19;;;5.62;100.00
58239;BME280;44037;55.638;37.356;2023-10-19T00:06:49;98122.75;;;5.61;100.00
58239;BME280;44037;55.638;37.356;2023-10-19T00:09:16;98120.19;;;5.63;100.00
58239;BME280;44037;55.638;37.356;2023-10-19T00:11:42;98123.63;;;5.63;100.00
58239;BME280;44037;55.638;37.356;2023-10-19T00:14:09;98122.78;;;5.64;100.00
58239;BME280;44037;55.638;37.356;2023-10-19T00:16:43;98128.75;;;5.65;100.00
58239;BME280;44037;55.638;37.356;2023-10-19T00:19:16;98124.50;;;5.65;100.00
58239;BME280;44037;55.638;37.356;2023-10-19T00:21:45;98123.66;;;5.66;100.00
58239;BME280;44037;55.638;37.356;2023-10-19T00:24:18;98120.19;;;5.67;100.00
58239;BME280;44037;55.638;37.356;2023-10-19T00:26:45;98123.63;;;5.68;100.00
58239;BME280;44037;55.638;37.356;2023-10-19T00:29:13;98123.63;;;5.68;100.00
58239;BME280;44037;55.638;37.356;2023-10-19T00:31:57;98125.34;;;5.69;100.00
58239;BME280;44037;55.638;37.356;2023-10-19T00:34:25;98112.47;;;5.67;100.00
58239;BME280;44037;55.638;37.356;2023-10-19T00:36:54;98118.50;;;5.69;100.00
58239;BME280;44037;55.638;37.356;2023-10-19T00:39:22;98109.94;;;5.69;100.00
58239;BME280;44037;55.638;37.356;2023-10-19T00:41:50;98110.78;;;5.69;100.00
58239;BME280;44037;55.638;37.356;2023-10-19T00:44:19;98110.78;;;5.69;100.00
58239;BME280;44037;55.638;37.356;2023-10-19T00:46:57;98112.47;;;5.67;100.00
58239;BME280;44037;55.638;37.356;2023-10-19T00:49:30;98112.50;;;5.66;100.00
58239;BME280;44037;55.638;37.356;2023-10-19T00:51:58;98113.34;;;5.65;100.00
58239;BME280;44037;55.638;37.356;2023-10-19T00:54:31;98114.19;;;5.64;100.00
58239;BME280;44037;55.638;37.356;2023-10-19T00:57:02;98115.03;;;5.63;100.00
58239;BME280;44037;55.638;37.356;2023-10-19T00:59:32;98121.06;;;5.63;100.00
58239;BME280;44037;55.638;37.356;2023-10-19T01:02:05;98116.75;;;5.64;100.00
58239;BME280;44037;55.638;37.356;2023-10-19T01:04:49;98119.34;;;5.62;100.00
58239;BME280;44037;55.638;37.356;2023-10-19T01:07:22;98119.31;;;5.64;100.00
58239;BME280;44037;55.638;37.356;2023-10-19T01:09:53;98122.78;;;5.64;100.00
58239;BME280;44037;55.638;37.356;2023-10-19T01:12:22;98116.75;;;5.64;100.00
58239;BME280;44037;55.638;37.356;2023-10-19T01:15:01;98117.59;;;5.63;100.00
58239;BME280;44037;55.638;37.356;2023-10-19T01:17:33;98115.03;;;5.61;100.00
58239;BME280;44037;55.638;37.356;2023-10-19T01:20:07;98112.47;;;5.61;100.00
58239;BME280;44037;55.638;37.356;2023-10-19T01:22:50;98115.03;;;5.61;100.00
58239;BME280;44037;55.638;37.356;2023-10-19T01:25:19;98112.47;;;5.61;100.00
58239;BME280;44037;55.638;37.356;2023-10-19T01:27:52;98110.75;;;5.60;100.00
58239;BME280;44037;55.638;37.356;2023-10-19T01:30:23;98109.88;;;5.58;100.00
58239;BME280;44037;55.638;37.356;2023-10-19T01:32:53;98115.88;;;5.57;100.00
58239;BME280;44037;55.638;37.356;2023-10-19T01:35:20;98109.00;;;5.54;100.00
58239;BME280;44037;55.638;37.356;2023-10-19T01:37:48;98103.00;;;5.52;100.00
58239;BME280;44037;55.638;37.356;2023-10-19T01:40:14;98107.31;;;5.52;100.00
58239;BME280;44037;55.638;37.356;2023-10-19T01:42:46;98099.56;;;5.50;100.00
58239;BME280;44037;55.638;37.356;2023-10-19T01:45:12;98110.72;;;5.51;100.00
58239;BME280;44037;55.638;37.356;2023-10-19T01:47:39;98108.13;;;5.49;100.00
58239;BME280;44037;55.638;37.356;2023-10-19T01:50:07;98110.72;;;5.51;100.00
58239;BME280;44037;55.638;37.356;2023-10-19T01:52:45;98110.72;;;5.51;100.00
58239;BME280;44037;55.638;37.356;2023-10-19T01:55:13;98111.56;;;5.51;100.00
58239;BME280;44037;55.638;37.356;2023-10-19T01:57:46;98113.28;;;5.52;100.00
58239;BME280;44037;55.638;37.356;2023-10-19T02:00:13;98101.31;;;5.53;100.00
58239;BME280;44037;55.638;37.356;2023-10-19T02:02:48;98105.59;;;5.57;100.00
58239;BME280;44037;55.638;37.356;2023-10-19T02:05:16;98111.56;;;5.56;100.00
58239;BME280;44037;55.638;37.356;2023-10-19T02:07:44;98112.47;;;5.57;100.00
58239;BME280;44037;55.638;37.356;2023-10-19T02:10:10;98107.31;;;5.57;100.00
58239;BME280;44037;55.638;37.356;2023-10-19T02:12:39;98105.59;;;5.56;100.00
58239;BME280;44037;55.638;37.356;2023-10-19T02:15:08;98109.84;;;5.55;100.00
58239;BME280;44037;55.638;37.356;2023-10-19T02:17:35;98108.16;;;5.52;100.00
58239;BME280;44037;55.638;37.356;2023-10-19T02:20:03;98108.16;;;5.51;100.00
58239;BME280;44037;55.638;37.356;2023-10-19T02:22:43;98110.69;;;5.49;100.00
58239;BME280;44037;55.638;37.356;2023-10-19T02:25:09;98105.56;;;5.51;100.00
58239;BME280;44037;55.638;37.356;2023-10-19T02:27:40;98101.28;;;5.50;100.00
58239;BME280;44037;55.638;37.356;2023-10-19T02:30:08;98102.16;;;5.52;100.00
58239;BME280;44037;55.638;37.356;2023-10-19T02:32:37;98097.88;;;5.52;100.00
58239;BME280;44037;55.638;37.356;2023-10-19T02:35:05;98099.59;;;5.53;100.00
58239;BME280;44037;55.638;37.356;2023-10-19T02:37:31;98102.19;;;5.57;100.00
58239;BME280;44037;55.638;37.356;2023-10-19T02:39:58;98105.59;;;5.57;100.00
58239;BME280;44037;55.638;37.356;2023-10-19T02:42:26;98100.44;;;5.57;100.00
58239;BME280;44037;55.638;37.356;2023-10-19T02:44:54;98103.03;;;5.57;100.00
58239;BME280;44037;55.638;37.356;2023-10-19T02:47:20;98097.88;;;5.56;100.00
58239;BME280;44037;55.638;37.356;2023-10-19T02:49:47;98103.03;;;5.56;100.00
58239;BME280;44037;55.638;37.356;2023-10-19T02:52:21;98101.31;;;5.56;100.00
58239;BME280;44037;55.638;37.356;2023-10-19T02:54:48;98103.03;;;5.57;100.00
58239;BME280;44037;55.638;37.356;2023-10-19T02:57:15;98095.31;;;5.57;100.00
58239;BME280;44037;55.638;37.356;2023-10-19T02:59:41;98099.59;;;5.58;100.00
58239;BME280;44037;55.638;37.356;2023-10-19T03:02:13;98096.19;;;5.61;100.00
58239;BME280;44037;55.638;37.356;2023-10-19T03:04:43;98099.63;;;5.61;100.00
58239;BME280;44037;55.638;37.356;2023-10-19T03:07:11;98097.06;;;5.63;100.00
58239;BME280;44037;55.638;37.356;2023-10-19T03:09:38;98092.78;;;5.65;100.00
58239;BME280;44037;55.638;37.356;2023-10-19T03:12:05;98095.38;;;5.66;100.00
58239;BME280;44037;55.638;37.356;2023-10-19T03:14:36;98100.53;;;5.66;100.00
58239;BME280;44037;55.638;37.356;2023-10-19T03:17:04;98103.09;;;5.66;100.00
58239;BME280;44037;55.638;37.356;2023-10-19T03:19:32;98098.78;;;5.67;100.00
58239;BME280;44037;55.638;37.356;2023-10-19T03:22:00;98103.94;;;5.68;100.00
58239;BME280;44037;55.638;37.356;2023-10-19T03:24:27;98103.94;;;5.68;100.00
58239;BME280;44037;55.638;37.356;2023-10-19T03:27:02;98103.94;;;5.67;100.00
58239;BME280;44037;55.638;37.356;2023-10-19T03:29:34;98102.19;;;5.67;100.00
58239;BME280;44037;55.638;37.356;2023-10-19T03:32:04;98097.91;;;5.65;100.00
58239;BME280;44037;55.638;37.356;2023-10-19T03:34:34;98105.63;;;5.65;100.00
58239;BME280;44037;55.638;37.356;2023-10-19T03:37:01;98096.22;;;5.62;100.00
58239;BME280;44037;55.638;37.356;2023-10-19T03:39:33;98097.06;;;5.64;100.00
58239;BME280;44037;55.638;37.356;2023-10-19T03:42:03;98094.47;;;5.63;100.00
58239;BME280;44037;55.638;37.356;2023-10-19T03:44:32;98098.78;;;5.65;100.00
58239;BME280;44037;55.638;37.356;2023-10-19T03:47:17;98097.06;;;5.67;100.00
58239;BME280;44037;55.638;37.356;2023-10-19T03:49:47;98100.50;;;5.69;100.00
58239;BME280;44037;55.638;37.356;2023-10-19T03:52:16;98104.78;;;5.71;100.00
58239;BME280;44037;55.638;37.356;2023-10-19T03:54:49;98100.50;;;5.69;100.00
58239;BME280;44037;55.638;37.356;2023-10-19T03:57:18;98106.50;;;5.72;100.00
58239;BME280;44037;55.638;37.356;2023-10-19T03:59:48;98109.94;;;5.71;100.00
58239;BME280;44037;55.638;37.356;2023-10-19T04:02:19;98104.78;;;5.71;100.00
58239;BME280;44037;55.638;37.356;2023-10-19T04:04:48;98103.94;;;5.68;100.00
58239;BME280;44037;55.638;37.356;2023-10-19T04:07:16;98099.66;;;5.69;100.00
58239;BME280;44037;55.638;37.356;2023-10-19T04:09:47;98110.81;;;5.71;100.00
58239;BME280;44037;55.638;37.356;2023-10-19T04:12:25;98100.53;;;5.73;100.00
58239;BME280;44037;55.638;37.356;2023-10-19T04:14:54;98103.97;;;5.73;100.00
58239;BME280;44037;55.638;37.356;2023-10-19T04:17:22;98102.25;;;5.74;100.00
58239;BME280;44037;55.638;37.356;2023-10-19T04:19:52;98100.53;;;5.76;100.00
58239;BME280;44037;55.638;37.356;2023-10-19T04:22:21;98105.69;;;5.76;100.00
58239;BME280;44037;55.638;37.356;2023-10-19T04:24:51;98108.25;;;5.77;100.00
58239;BME280;44037;55.638;37.356;2023-10-19T04:27:19;98114.25;;;5.78;100.00
58239;BME280;44037;55.638;37.356;2023-10-19T04:29:48;98112.53;;;5.80;100.00
58239;BME280;44037;55.638;37.356;2023-10-19T04:32:16;98111.69;;;5.81;100.00
58239;BME280;44037;55.638;37.356;2023-10-19T04:34:52;98116.81;;;5.81;100.00
58239;BME280;44037;55.638;37.356;2023-10-19T04:37:19;98115.13;;;5.81;100.00
58239;BME280;44037;55.638;37.356;2023-10-19T04:39:49;98114.25;;;5.81;100.00
58239;BME280;44037;55.638;37.356;2023-10-19T04:42:17;98109.13;;;5.81;100.00
58239;BME280;44037;55.638;37.356;2023-10-19T04:44:45;98108.25;;;5.82;100.00
58239;BME280;44037;55.638;37.356;2023-10-19T04:47:12;98116.84;;;5.82;100.00
58239;BME280;44037;55.638;37.356;2023-10-19T04:49:39;98114.28;;;5.82;100.00
58239;BME280;44037;55.638;37.356;2023-10-19T04:52:07;98110.84;;;5.83;100.00
58239;BME280;44037;55.638;37.356;2023-10-19T04:54:34;98111.72;;;5.86;100.00
58239;BME280;44037;55.638;37.356;2023-10-19T04:57:03;98110.88;;;5.88;100.00
58239;BME280;44037;55.638;37.356;2023-10-19T04:59:30;98116.88;;;5.92;100.00
58239;BME280;44037;55.638;37.356;2023-10-19T05:01:59;98115.19;;;5.94;100.00
58239;BME280;44037;55.638;37.356;2023-10-19T05:04:27;98115.19;;;5.97;100.00
58239;BME280;44037;55.638;37.356;2023-10-19T05:06:55;98115.19;;;5.97;100.00
58239;BME280;44037;55.638;37.356;2023-10-19T05:09:23;98116.03;;;5.97;100.00
58239;BME280;44037;55.638;37.356;2023-10-19T05:11:51;98108.31;;;5.99;100.00
58239;BME280;44037;55.638;37.356;2023-10-19T05:14:18;98122.94;;;6.02;100.00
58239;BME280;44037;55.638;37.356;2023-10-19T05:16:45;98116.09;;;6.05;100.00
58239;BME280;44037;55.638;37.356;2023-10-19T05:19:15;98122.94;;;6.08;100.00
58239;BME280;44037;55.638;37.356;2023-10-19T05:21:43;98122.09;;;6.13;100.00
58239;BME280;44037;55.638;37.356;2023-10-19T05:24:10;98114.41;;;6.18;100.00
58239;BME280;44037;55.638;37.356;2023-10-19T05:26:39;98117.84;;;6.23;100.00
58239;BME280;44037;55.638;37.356;2023-10-19T05:29:06;98114.44;;;6.27;100.00
58239;BME280;44037;55.638;37.356;2023-10-19T05:31:33;98127.31;;;6.32;100.00
58239;BME280;44037;55.638;37.356;2023-10-19T05:34:01;98123.91;;;6.36;100.00
58239;BME280;44037;55.638;37.356;2023-10-19T05:36:28;98121.31;;;6.38;100.00
58239;BME280;44037;55.638;37.356;2023-10-19T05:38:55;98124.75;;;6.40;100.00
58239;BME280;44037;55.638;37.356;2023-10-19T05:41:22;98124.75;;;6.40;100.00
58239;BME280;44037;55.638;37.356;2023-10-19T05:43:50;98130.75;;;6.43;100.00
58239;BME280;44037;55.638;37.356;2023-10-19T05:46:18;98125.63;;;6.47;100.00
58239;BME280;44037;55.638;37.356;2023-10-19T05:48:47;98130.75;;;6.50;100.00
58239;BME280;44037;55.638;37.356;2023-10-19T05:51:14;98129.91;;;6.55;100.00
58239;BME280;44037;55.638;37.356;2023-10-19T05:53:42;98121.34;;;6.58;100.00
58239;BME280;44037;55.638;37.356;2023-10-19T05:56:10;98127.34;;;6.66;100.00
58239;BME280;44037;55.638;37.356;2023-10-19T05:58:37;98129.06;;;6.75;100.00
58239;BME280;44037;55.638;37.356;2023-10-19T06:01:05;98124.78;;;6.85;100.00
58239;BME280;44037;55.638;37.356;2023-10-19T06:03:32;98128.22;;;6.91;100.00
58239;BME280;44037;55.638;37.356;2023-10-19T06:05:59;98124.78;;;6.99;100.00
58239;BME280;44037;55.638;37.356;2023-10-19T06:08:26;98128.19;;;7.10;100.00
58239;BME280;44037;55.638;37.356;2023-10-19T06:10:54;98127.34;;;7.22;100.00
58239;BME280;44037;55.638;37.356;2023-10-19T06:13:21;98126.44;;;7.29;100.00
58239;BME280;44037;55.638;37.356;2023-10-19T06:15:48;98122.16;;;7.31;100.00
58239;BME280;44037;55.638;37.356;2023-10-19T06:18:17;98123.03;;;7.29;100.00
58239;BME280;44037;55.638;37.356;2023-10-19T06:20:46;98129.88;;;7.28;100.00
58239;BME280;44037;55.638;37.356;2023-10-19T06:23:17;98128.16;;;7.32;100.00
58239;BME280;44037;55.638;37.356;2023-10-19T06:25:46;98131.59;;;7.37;100.00
58239;BME280;44037;55.638;37.356;2023-10-19T06:28:14;98127.31;;;7.39;100.00
58239;BME280;44037;55.638;37.356;2023-10-19T06:30:41;98126.44;;;7.42;100.00
58239;BME280;44037;55.638;37.356;2023-10-19T06:33:09;98125.56;;;7.49;100.00
58239;BME280;44037;55.638;37.356;2023-10-19T06:35:45;98131.56;;;7.52;100.00
58239;BME280;44037;55.638;37.356;2023-10-19T06:38:15;98128.16;;;7.49;100.00
58239;BME280;44037;55.638;37.356;2023-10-19T06:40:42;98134.16;;;7.46;100.00
58239;BME280;44037;55.638;37.356;2023-10-19T06:43:09;98130.72;;;7.47;100.00
58239;BME280;44037;55.638;37.356;2023-10-19T06:45:37;98128.13;;;7.50;100.00
58239;BME280;44037;55.638;37.356;2023-10-19T06:48:05;98129.00;;;7.56;100.00
58239;BME280;44037;55.638;37.356;2023-10-19T06:50:32;98129.84;;;7.59;100.00
58239;BME280;44037;55.638;37.356;2023-10-19T06:53:03;98134.09;;;7.66;100.00
58239;BME280;44037;55.638;37.356;2023-10-19T06:55:31;98128.94;;;7.69;100.00
58239;BME280;44037;55.638;37.356;2023-10-19T06:57:58;98133.22;;;7.72;100.00
58239;BME280;44037;55.638;37.356;2023-10-19T07:00:27;98130.66;;;7.74;100.00
58239;BME280;44037;55.638;37.356;2023-10-19T07:02:55;98134.94;;;7.76;100.00
58239;BME280;44037;55.638;37.356;2023-10-19T07:05:23;98134.94;;;7.70;100.00
58239;BME280;44037;55.638;37.356;2023-10-19T07:07:52;98140.97;;;7.60;100.00
58239;BME280;44037;55.638;37.356;2023-10-19T07:10:32;98138.44;;;7.50;100.00
58239;BME280;44037;55.638;37.356;2023-10-19T07:13:00;98136.75;;;7.37;100.00
58239;BME280;44037;55.638;37.356;2023-10-19T07:15:27;98140.22;;;7.22;100.00
58239;BME280;44037;55.638;37.356;2023-10-19T07:17:55;98141.94;;;7.07;100.00
58239;BME280;44037;55.638;37.356;2023-10-19T07:20:27;98140.22;;;7.02;100.00
58239;BME280;44037;55.638;37.356;2023-10-19T07:29:08;98148.78;;;7.07;100.00
58239;BME280;44037;55.638;37.356;2023-10-19T07:31:40;98147.94;;;7.06;100.00
58239;BME280;44037;55.638;37.356;2023-10-19T07:34:25;98147.09;;;7.00;100.00
58239;BME280;44037;55.638;37.356;2023-10-19T07:37:05;98147.97;;;6.93;100.00
58239;BME280;44037;55.638;37.356;2023-10-19T07:39:33;98152.25;;;6.84;100.00
58239;BME280;44037;55.638;37.356;2023-10-19T07:42:02;98153.97;;;6.79;100.00
58239;BME280;44037;55.638;37.356;2023-10-19T07:44:45;98147.94;;;6.75;100.00
58239;BME280;44037;55.638;37.356;2023-10-19T07:49:58;98147.97;;;6.94;100.00
58239;BME280;44037;55.638;37.356;2023-10-19T07:52:25;98151.41;;;7.12;100.00
58239;BME280;44037;55.638;37.356;2023-10-19T07:55:13;98147.09;;;7.31;100.00
58239;BME280;44037;55.638;37.356;2023-10-19T07:57:51;98156.47;;;7.58;100.00
58239;BME280;44037;55.638;37.356;2023-10-19T08:00:22;98155.56;;;7.75;100.00
58239;BME280;44037;55.638;37.356;2023-10-19T08:03:10;98157.25;;;7.85;100.00
58239;BME280;44037;55.638;37.356;2023-10-19T08:05:39;98154.63;;;7.88;100.00
58239;BME280;44037;55.638;37.356;2023-10-19T08:08:06;98158.97;;;7.83;100.00
58239;BME280;44037;55.638;37.356;2023-10-19T08:10:39;98164.16;;;7.75;100.00
58239;BME280;44037;55.638;37.356;2023-10-19T08:13:10;98155.59;;;7.64;100.00
58239;BME280;44037;55.638;37.356;2023-10-19T08:15:38;98160.78;;;7.51;100.00
58239;BME280;44037;55.638;37.356;2023-10-19T08:18:06;98166.78;;;7.40;100.00
58239;BME280;44037;55.638;37.356;2023-10-19T08:20:33;98165.94;;;7.33;100.00
58239;BME280;44037;55.638;37.356;2023-10-19T08:23:03;98168.53;;;7.28;100.00
58239;BME280;44037;55.638;37.356;2023-10-19T08:25:31;98171.13;;;7.27;100.00
58239;BME280;44037;55.638;37.356;2023-10-19T08:27:58;98173.69;;;7.28;100.00
58239;BME280;44037;55.638;37.356;2023-10-19T08:30:28;98175.41;;;7.32;100.00
58239;BME280;44037;55.638;37.356;2023-10-19T08:32:55;98168.53;;;7.39;100.00
58239;BME280;44037;55.638;37.356;2023-10-19T08:35:24;98170.22;;;7.54;100.00
58239;BME280;44037;55.638;37.356;2023-10-19T08:37:53;98173.59;;;7.73;100.00
58239;BME280;44037;55.638;37.356;2023-10-19T08:40:22;98164.97;;;7.93;100.00
58239;BME280;44037;55.638;37.356;2023-10-19T08:42:52;98165.72;;;8.10;100.00
58239;BME280;44037;55.638;37.356;2023-10-19T08:45:20;98172.53;;;8.27;100.00
58239;BME280;44037;55.638;37.356;2023-10-19T08:47:53;98166.44;;;8.40;100.00
58239;BME280;44037;55.638;37.356;2023-10-19T08:50:23;98173.19;;;8.68;100.00
58239;BME280;44037;55.638;37.356;2023-10-19T08:52:53;98168.81;;;8.81;100.00
58239;BME280;44037;55.638;37.356;2023-10-19T08:55:20;98168.78;;;8.84;100.00
58239;BME280;44037;55.638;37.356;2023-10-19T08:57:49;98170.53;;;8.82;100.00
58239;BME280;44037;55.638;37.356;2023-10-19T09:00:19;98174.88;;;8.70;100.00
58239;BME280;44037;55.638;37.356;2023-10-19T09:02:53;98173.28;;;8.54;100.00
58239;BME280;44037;55.638;37.356;2023-10-19T09:05:22;98174.19;;;8.37;100.00
58239;BME280;44037;55.638;37.356;2023-10-19T09:08:16;98173.44;;;8.21;100.00
58239;BME280;44037;55.638;37.356;2023-10-19T09:10:44;98176.06;;;8.07;100.00
58239;BME280;44037;55.638;37.356;2023-10-19T09:13:27;98182.09;;;8.02;100.00
58239;BME280;44037;55.638;37.356;2023-10-19T09:15:54;98177.81;;;7.96;100.00
58239;BME280;44037;55.638;37.356;2023-10-19T09:18:37;98186.41;;;8.01;100.00
58239;BME280;44037;55.638;37.356;2023-10-19T09:21:07;98190.66;;;8.18;100.00
58239;BME280;44037;55.638;37.356;2023-10-19T09:23:37;98183.66;;;8.41;100.00
58239;BME280;44037;55.638;37.356;2023-10-19T09:26:05;98180.06;;;8.70;100.00
58239;BME280;44037;55.638;37.356;2023-10-19T09:28:34;98174.72;;;8.94;100.00
58239;BME280;44037;55.638;37.356;2023-10-19T09:31:02;98178.81;;;9.19;100.00
58239;BME280;44037;55.638;37.356;2023-10-19T09:33:31;98173.47;;;9.40;100.00
58239;BME280;44037;55.638;37.356;2023-10-19T09:43:24;98189.41;;;8.90;100.00
58239;BME280;44037;55.638;37.356;2023-10-19T09:50:23;98177.34;;;8.92;100.00
58239;BME280;44037;55.638;37.356;2023-10-19T09:53:46;98180.69;;;9.03;100.00
58239;BME280;44037;55.638;37.356;2023-10-19T09:56:19;98179.00;;;8.98;100.00
58239;BME280;44037;55.638;37.356;2023-10-19T09:58:51;98181.72;;;8.81;100.00
58239;BME280;44037;55.638;37.356;2023-10-19T10:01:20;98185.31;;;8.56;100.00
58239;BME280;44037;55.638;37.356;2023-10-19T10:03:49;98193.16;;;8.38;100.00
58239;BME280;44037;55.638;37.356;2023-10-19T10:06:17;98194.06;;;8.21;100.00
58239;BME280;44037;55.638;37.356;2023-10-19T10:08:53;98193.25;;;8.11;100.00
58239;BME280;44037;55.638;37.356;2023-10-19T10:11:22;98191.53;;;8.09;100.00
58239;BME280;44037;55.638;37.356;2023-10-19T10:13:55;98192.38;;;8.09;100.00
58239;BME280;44037;55.638;37.356;2023-10-19T10:16:23;98193.25;;;8.08;100.00
58239;BME280;44037;55.638;37.356;2023-10-19T10:18:55;98194.97;;;8.09;100.00
58239;BME280;44037;55.638;37.356;2023-10-19T10:21:25;98192.38;;;8.14;100.00
58239;BME280;44037;55.638;37.356;2023-10-19T10:23:53;98192.38;;;8.15;100.00
58239;BME280;44037;55.638;37.356;2023-10-19T10:26:24;98194.06;;;8.23;100.00
58239;BME280;44037;55.638;37.356;2023-10-19T10:29:10;98194.91;;;8.28;100.00
58239;BME280;44037;55.638;37.356;2023-10-19T10:31:43;98190.56;;;8.32;100.00
58239;BME280;44037;55.638;37.356;2023-10-19T10:37:01;98196.63;;;8.29;100.00
58239;BME280;44037;55.638;37.356;2023-10-19T10:39:30;98188.88;;;8.27;100.00
58239;BME280;44037;55.638;37.356;2023-10-19T10:41:58;98191.47;;;8.29;100.00
58239;BME280;44037;55.638;37.356;2023-10-19T10:44:41;98194.88;;;8.33;100.00
58239;BME280;44037;55.638;37.356;2023-10-19T10:47:09;98195.69;;;8.41;100.00
58239;BME280;44037;55.638;37.356;2023-10-19T10:49:50;98199.97;;;8.53;100.00
58239;BME280;44037;55.638;37.356;2023-10-19T10:52:25;98198.16;;;8.69;100.00
58239;BME280;44037;55.638;37.356;2023-10-19T10:54:55;98202.31;;;8.87;100.00
58239;BME280;44037;55.638;37.356;2023-10-19T10:57:22;98200.44;;;9.07;100.00
58239;BME280;44037;55.638;37.356;2023-10-19T11:00:05;98191.66;;;9.29;100.00
58239;BME280;44037;55.638;37.356;2023-10-19T11:02:37;98201.00;;;9.45;100.00
58239;BME280;44037;55.638;37.356;2023-10-19T11:05:08;98195.75;;;9.55;100.00
58239;BME280;44037;55.638;37.356;2023-10-19T11:07:37;98199.13;;;9.58;100.00
58239;BME280;44037;55.638;37.356;2023-10-19T11:10:05;98202.66;;;9.54;100.00
58239;BME280;44037;55.638;37.356;2023-10-19T11:12:33;98194.09;;;9.47;100.00
58239;BME280;44037;55.638;37.356;2023-10-19T11:15:02;98196.78;;;9.36;100.00
58239;BME280;44037;55.638;37.356;2023-10-19T11:17:42;98194.31;;;9.21;100.00
58239;BME280;44037;55.638;37.356;2023-10-19T11:20:20;98199.63;;;9.05;100.00
58239;BME280;44037;55.638;37.356;2023-10-19T11:22:48;98193.69;;;8.91;100.00
58239;BME280;44037;55.638;37.356;2023-10-19T11:25:20;98201.53;;;8.79;100.00
58239;BME280;44037;55.638;37.356;2023-10-19T11:27:47;98205.00;;;8.71;100.00
58239;BME280;44037;55.638;37.356;2023-10-19T11:30:24;98200.75;;;8.66;100.00
58239;BME280;44037;55.638;37.356;2023-10-19T11:32:52;98196.44;;;8.69;100.00
58239;BME280;44037;55.638;37.356;2023-10-19T11:35:23;98192.06;;;8.76;100.00
58239;BME280;44037;55.638;37.356;2023-10-19T11:37:52;98199.81;;;8.81;100.00
58239;BME280;44037;55.638;37.356;2023-10-19T11:40:20;98195.47;;;8.84;100.00
58239;BME280;44037;55.638;37.356;2023-10-19T11:42:47;98196.31;;;8.85;100.00
58239;BME280;44037;55.638;37.356;2023-10-19T11:45:15;98197.13;;;8.88;100.00
58239;BME280;44037;55.638;37.356;2023-10-19T11:47:44;98196.28;;;8.94;100.00
58239;BME280;44037;55.638;37.356;2023-10-19T11:50:12;98199.66;;;9.01;100.00
58239;BME280;44037;55.638;37.356;2023-10-19T11:52:41;98192.72;;;9.03;100.00
58239;BME280;44037;55.638;37.356;2023-10-19T11:55:08;98196.19;;;9.02;100.00
58239;BME280;44037;55.638;37.356;2023-10-19T11:57:35;98194.50;;;8.99;100.00
58239;BME280;44037;55.638;37.356;2023-10-19T12:00:03;98193.69;;;8.94;100.00
58239;BME280;44037;55.638;37.356;2023-10-19T12:02:35;98191.13;;;8.91;100.00
58239;BME280;44037;55.638;37.356;2023-10-19T12:05:06;98188.53;;;8.94;100.00
58239;BME280;44037;55.638;37.356;2023-10-19T12:07:36;98195.38;;;8.97;100.00
58239;BME280;44037;55.638;37.356;2023-10-19T12:10:06;98193.63;;;9.00;100.00
58239;BME280;44037;55.638;37.356;2023-10-19T12:12:41;98192.78;;;9.00;100.00
58239;BME280;44037;55.638;37.356;2023-10-19T12:15:09;98194.50;;;8.99;100.00
58239;BME280;44037;55.638;37.356;2023-10-19T12:17:38;98194.50;;;9.01;100.00
58239;BME280;44037;55.638;37.356;2023-10-19T12:20:07;98200.50;;;9.01;100.00
58239;BME280;44037;55.638;37.356;2023-10-19T12:22:35;98198.78;;;9.03;100.00
58239;BME280;44037;55.638;37.356;2023-10-19T12:25:05;98200.50;;;9.01;100.00
58239;BME280;44037;55.638;37.356;2023-10-19T12:27:32;98199.66;;;8.96;100.00
58239;BME280;44037;55.638;37.356;2023-10-19T12:29:59;98202.31;;;8.90;100.00
58239;BME280;44037;55.638;37.356;2023-10-19T12:32:28;98206.63;;;8.88;100.00
58239;BME280;44037;55.638;37.356;2023-10-19T12:34:55;98198.03;;;8.83;100.00
58239;BME280;44037;55.638;37.356;2023-10-19T12:37:25;98208.38;;;8.83;100.00
58239;BME280;44037;55.638;37.356;2023-10-19T12:39:53;98205.81;;;8.81;100.00
58239;BME280;44037;55.638;37.356;2023-10-19T12:42:21;98209.25;;;8.80;100.00
58239;BME280;44037;55.638;37.356;2023-10-19T12:44:49;98214.44;;;8.79;100.00
58239;BME280;44037;55.638;37.356;2023-10-19T12:47:16;98216.19;;;8.76;100.00
58239;BME280;44037;55.638;37.356;2023-10-19T12:49:43;98213.63;;;8.72;100.00
58239;BME280;44037;55.638;37.356;2023-10-19T12:52:11;98215.38;;;8.65;100.00
58239;BME280;44037;55.638;37.356;2023-10-19T12:54:41;98211.13;;;8.59;100.00
58239;BME280;44037;55.638;37.356;2023-10-19T12:57:11;98212.00;;;8.54;100.00
58239;BME280;44037;55.638;37.356;2023-10-19T12:59:43;98212.03;;;8.51;100.00
58239;BME280;44037;55.638;37.356;2023-10-19T13:02:10;98212.84;;;8.46;100.00
58239;BME280;44037;55.638;37.356;2023-10-19T13:04:40;98209.44;;;8.43;100.00
58239;BME280;44037;55.638;37.356;2023-10-19T13:07:08;98212.06;;;8.38;100.00
58239;BME280;44037;55.638;37.356;2023-10-19T13:09:38;98215.50;;;8.34;100.00
58239;BME280;44037;55.638;37.356;2023-10-19T13:12:07;98217.25;;;8.30;100.00
58239;BME280;44037;55.638;37.356;2023-10-19T13:14:35;98215.53;;;8.28;100.00
58239;BME280;44037;55.638;37.356;2023-10-19T13:17:03;98208.69;;;8.21;100.00
58239;BME280;44037;55.638;37.356;2023-10-19T13:19:30;98204.41;;;8.15;100.00
58239;BME280;44037;55.638;37.356;2023-10-19T13:21:58;98215.59;;;8.09;100.00
58239;BME280;44037;55.638;37.356;2023-10-19T13:24:30;98213.91;;;8.05;100.00
58239;BME280;44037;55.638;37.356;2023-10-19T13:27:07;98212.19;;;8.01;100.00
58239;BME280;44037;55.638;37.356;2023-10-19T13:29:35;98215.66;;;7.97;100.00